sensor_id;sensor_type;location;lat;lon;timestamp;temperature;humidity
32334;DHT22;18810;53.040;8.850;2022-09-12T00:02:56;14.30;99.90
32334;DHT22;18810;53.040;8.850;2022-09-12T00:05:22;14.50;99.90
32334;DHT22;18810;53.040;8.850;2022-09-12T00:10:14;14.40;99.90
32334;DHT22;18810;53.040;8.850;2022-09-12T00:12:40;14.50;99.90
32334;DHT22;18810;53.040;8.850;2022-09-12T00:15:06;14.50;99.90
32334;DHT22;18810;53.040;8.850;2022-09-12T00:17:37;14.00;99.90
32334;DHT22;18810;53.040;8.850;2022-09-12T00:20:05;14.00;99.90
32334;DHT22;18810;53.040;8.850;2022-09-12T00:24:59;14.20;99.90
32334;DHT22;18810;53.040;8.850;2022-09-12T00:27:25;14.10;99.90
32334;DHT22;18810;53.040;8.850;2022-09-12T00:29:51;14.20;99.90
32334;DHT22;18810;53.040;8.850;2022-09-12T00:32:17;14.20;99.90
32334;DHT22;18810;53.040;8.850;2022-09-12T00:34:43;14.10;99.90
32334;DHT22;18810;53.040;8.850;2022-09-12T00:37:08;13.90;99.90
32334;DHT22;18810;53.040;8.850;2022-09-12T00:54:25;13.80;99.90
32334;DHT22;18810;53.040;8.850;2022-09-12T00:56:55;13.70;99.90
32334;DHT22;18810;53.040;8.850;2022-09-12T00:59:24;13.70;99.90
32334;DHT22;18810;53.040;8.850;2022-09-12T01:04:19;13.30;99.90
32334;DHT22;18810;53.040;8.850;2022-09-12T01:06:46;13.40;99.90
32334;DHT22;18810;53.040;8.850;2022-09-12T01:09:16;13.60;99.90
32334;DHT22;18810;53.040;8.850;2022-09-12T01:11:44;13.40;99.90
32334;DHT22;18810;53.040;8.850;2022-09-12T01:14:12;13.60;99.90
32334;DHT22;18810;53.040;8.850;2022-09-12T01:16:38;13.50;99.90
32334;DHT22;18810;53.040;8.850;2022-09-12T01:35:30;13.10;99.90
32334;DHT22;18810;53.040;8.850;2022-09-12T01:45:38;13.30;99.90
32334;DHT22;18810;53.040;8.850;2022-09-12T01:50:42;13.20;99.90
32334;DHT22;18810;53.040;8.850;2022-09-12T01:53:28;13.20;99.90
32334;DHT22;18810;53.040;8.850;2022-09-12T01:56:20;12.90;99.90
32334;DHT22;18810;53.040;8.850;2022-09-12T02:01:30;13.00;99.90
32334;DHT22;18810;53.040;8.850;2022-09-12T02:04:11;12.80;99.90
32334;DHT22;18810;53.040;8.850;2022-09-12T02:09:24;12.80;99.90
32334;DHT22;18810;53.040;8.850;2022-09-12T02:11:54;13.00;99.90
32334;DHT22;18810;53.040;8.850;2022-09-12T02:14:31;12.80;99.90
32334;DHT22;18810;53.040;8.850;2022-09-12T02:17:02;12.80;99.90
32334;DHT22;18810;53.040;8.850;2022-09-12T02:19:35;12.90;99.90
32334;DHT22;18810;53.040;8.850;2022-09-12T02:22:04;13.10;99.90
32334;DHT22;18810;53.040;8.850;2022-09-12T02:24:41;12.80;99.90
32334;DHT22;18810;53.040;8.850;2022-09-12T02:27:15;12.60;99.90
32334;DHT22;18810;53.040;8.850;2022-09-12T02:29:43;12.50;99.90
32334;DHT22;18810;53.040;8.850;2022-09-12T02:37:27;12.70;99.90
32334;DHT22;18810;53.040;8.850;2022-09-12T02:39:57;12.60;99.90
32334;DHT22;18810;53.040;8.850;2022-09-12T02:42:23;12.30;99.90
32334;DHT22;18810;53.040;8.850;2022-09-12T02:44:52;12.70;99.90
32334;DHT22;18810;53.040;8.850;2022-09-12T02:47:27;12.30;99.90
32334;DHT22;18810;53.040;8.850;2022-09-12T02:49:56;12.70;99.90
32334;DHT22;18810;53.040;8.850;2022-09-12T02:52:22;12.30;99.90
32334;DHT22;18810;53.040;8.850;2022-09-12T02:54:49;12.50;99.90
32334;DHT22;18810;53.040;8.850;2022-09-12T02:57:17;12.60;99.90
32334;DHT22;18810;53.040;8.850;2022-09-12T02:59:44;12.70;99.90
32334;DHT22;18810;53.040;8.850;2022-09-12T03:21:27;12.50;99.90
32334;DHT22;18810;53.040;8.850;2022-09-12T03:26:47;12.10;99.90
32334;DHT22;18810;53.040;8.850;2022-09-12T03:29:17;12.30;99.90
32334;DHT22;18810;53.040;8.850;2022-09-12T03:31:56;12.20;99.90
32334;DHT22;18810;53.040;8.850;2022-09-12T03:34:24;12.40;99.90
32334;DHT22;18810;53.040;8.850;2022-09-12T03:39:16;12.40;99.90
32334;DHT22;18810;53.040;8.850;2022-09-12T03:41:42;12.10;99.90
32334;DHT22;18810;53.040;8.850;2022-09-12T03:46:34;12.40;99.90
32334;DHT22;18810;53.040;8.850;2022-09-12T03:49:01;12.00;99.90
32334;DHT22;18810;53.040;8.850;2022-09-12T03:56:19;12.00;99.90
32334;DHT22;18810;53.040;8.850;2022-09-12T03:58:45;12.10;99.90
32334;DHT22;18810;53.040;8.850;2022-09-12T04:01:13;12.70;99.90
32334;DHT22;18810;53.040;8.850;2022-09-12T04:03:43;11.80;99.90
32334;DHT22;18810;53.040;8.850;2022-09-12T04:06:10;12.00;99.90
32334;DHT22;18810;53.040;8.850;2022-09-12T04:08:37;12.00;99.90
32334;DHT22;18810;53.040;8.850;2022-09-12T04:11:09;12.00;99.90
32334;DHT22;18810;53.040;8.850;2022-09-12T04:13:36;11.50;99.90
32334;DHT22;18810;53.040;8.850;2022-09-12T04:16:02;11.80;99.90
32334;DHT22;18810;53.040;8.850;2022-09-12T04:23:22;11.90;99.90
32334;DHT22;18810;53.040;8.850;2022-09-12T04:25:56;12.20;99.90
32334;DHT22;18810;53.040;8.850;2022-09-12T04:28:23;11.70;99.90
32334;DHT22;18810;53.040;8.850;2022-09-12T04:30:49;11.60;99.90
32334;DHT22;18810;53.040;8.850;2022-09-12T04:33:14;12.00;99.90
32334;DHT22;18810;53.040;8.850;2022-09-12T04:35:40;12.00;99.90
32334;DHT22;18810;53.040;8.850;2022-09-12T04:38:07;11.70;99.90
32334;DHT22;18810;53.040;8.850;2022-09-12T04:40:33;11.70;99.90
32334;DHT22;18810;53.040;8.850;2022-09-12T04:42:58;11.80;99.90
32334;DHT22;18810;53.040;8.850;2022-09-12T04:45:24;12.10;99.90
32334;DHT22;18810;53.040;8.850;2022-09-12T04:47:51;12.00;99.90
32334;DHT22;18810;53.040;8.850;2022-09-12T04:50:16;12.00;99.90
32334;DHT22;18810;53.040;8.850;2022-09-12T04:52:42;11.90;99.90
32334;DHT22;18810;53.040;8.850;2022-09-12T04:55:08;12.00;99.90
32334;DHT22;18810;53.040;8.850;2022-09-12T04:57:34;12.00;99.90
32334;DHT22;18810;53.040;8.850;2022-09-12T05:02:29;12.20;99.90
32334;DHT22;18810;53.040;8.850;2022-09-12T05:04:54;12.10;99.90
32334;DHT22;18810;53.040;8.850;2022-09-12T05:17:05;12.10;99.90
32334;DHT22;18810;53.040;8.850;2022-09-12T05:21:57;12.00;99.90
32334;DHT22;18810;53.040;8.850;2022-09-12T05:24:23;12.40;99.90
32334;DHT22;18810;53.040;8.850;2022-09-12T05:26:49;12.00;99.90
32334;DHT22;18810;53.040;8.850;2022-09-12T05:29:15;12.30;99.90
32334;DHT22;18810;53.040;8.850;2022-09-12T05:34:07;13.60;99.90
32334;DHT22;18810;53.040;8.850;2022-09-12T05:36:33;13.30;99.90
32334;DHT22;18810;53.040;8.850;2022-09-12T05:38:59;13.40;99.90
32334;DHT22;18810;53.040;8.850;2022-09-12T05:41:27;14.10;99.90
32334;DHT22;18810;53.040;8.850;2022-09-12T05:44:00;14.20;99.90
32334;DHT22;18810;53.040;8.850;2022-09-12T05:46:28;14.20;99.90
32334;DHT22;18810;53.040;8.850;2022-09-12T05:48:54;14.30;99.90
32334;DHT22;18810;53.040;8.850;2022-09-12T05:51:32;14.30;99.90
32334;DHT22;18810;53.040;8.850;2022-09-12T05:53:59;14.20;99.90
32334;DHT22;18810;53.040;8.850;2022-09-12T05:56:31;14.30;99.90
32334;DHT22;18810;53.040;8.850;2022-09-12T06:01:24;13.90;99.90
32334;DHT22;18810;53.040;8.850;2022-09-12T06:03:53;13.70;99.90
32334;DHT22;18810;53.040;8.850;2022-09-12T06:06:21;14.00;99.90
32334;DHT22;18810;53.040;8.850;2022-09-12T06:08:49;14.30;99.90
32334;DHT22;18810;53.040;8.850;2022-09-12T06:11:17;14.20;99.90
32334;DHT22;18810;53.040;8.850;2022-09-12T06:13:43;14.30;99.90
32334;DHT22;18810;53.040;8.850;2022-09-12T06:16:10;14.00;99.90
32334;DHT22;18810;53.040;8.850;2022-09-12T06:18:37;14.30;99.90
32334;DHT22;18810;53.040;8.850;2022-09-12T06:21:05;14.40;99.90
32334;DHT22;18810;53.040;8.850;2022-09-12T06:23:31;14.50;99.90
32334;DHT22;18810;53.040;8.850;2022-09-12T06:25:56;14.60;99.90
32334;DHT22;18810;53.040;8.850;2022-09-12T06:28:22;14.70;99.90
32334;DHT22;18810;53.040;8.850;2022-09-12T06:30:49;14.90;99.90
32334;DHT22;18810;53.040;8.850;2022-09-12T06:33:15;15.10;99.90
32334;DHT22;18810;53.040;8.850;2022-09-12T06:35:41;14.80;99.90
32334;DHT22;18810;53.040;8.850;2022-09-12T06:38:07;15.40;99.90
32334;DHT22;18810;53.040;8.850;2022-09-12T06:40:40;15.60;99.90
32334;DHT22;18810;53.040;8.850;2022-09-12T06:43:08;15.20;99.90
32334;DHT22;18810;53.040;8.850;2022-09-12T06:45:34;15.60;99.90
32334;DHT22;18810;53.040;8.850;2022-09-12T06:48:00;15.80;99.90
32334;DHT22;18810;53.040;8.850;2022-09-12T06:50:26;15.90;99.90
32334;DHT22;18810;53.040;8.850;2022-09-12T06:52:51;16.10;99.90
32334;DHT22;18810;53.040;8.850;2022-09-12T07:00:10;16.30;99.90
32334;DHT22;18810;53.040;8.850;2022-09-12T07:02:36;16.40;99.90
32334;DHT22;18810;53.040;8.850;2022-09-12T07:05:01;16.80;99.90
32334;DHT22;18810;53.040;8.850;2022-09-12T07:12:22;16.80;99.90
32334;DHT22;18810;53.040;8.850;2022-09-12T07:14:48;17.10;99.90
32334;DHT22;18810;53.040;8.850;2022-09-12T07:17:13;17.30;99.90
32334;DHT22;18810;53.040;8.850;2022-09-12T07:29:24;17.70;99.90
32334;DHT22;18810;53.040;8.850;2022-09-12T07:31:49;17.90;99.90
32334;DHT22;18810;53.040;8.850;2022-09-12T07:34:18;18.50;99.90
32334;DHT22;18810;53.040;8.850;2022-09-12T07:46:29;20.70;99.90
32334;DHT22;18810;53.040;8.850;2022-09-12T07:48:57;19.10;99.90
32334;DHT22;18810;53.040;8.850;2022-09-12T07:51:24;19.40;99.90
32334;DHT22;18810;53.040;8.850;2022-09-12T07:53:50;19.70;99.90
32334;DHT22;18810;53.040;8.850;2022-09-12T07:56:17;19.70;99.90
32334;DHT22;18810;53.040;8.850;2022-09-12T07:58:44;19.90;99.90
32334;DHT22;18810;53.040;8.850;2022-09-12T08:01:13;19.30;99.90
32334;DHT22;18810;53.040;8.850;2022-09-12T08:03:39;20.40;99.90
32334;DHT22;18810;53.040;8.850;2022-09-12T08:06:14;20.30;99.90
32334;DHT22;18810;53.040;8.850;2022-09-12T08:08:41;20.70;99.90
32334;DHT22;18810;53.040;8.850;2022-09-12T08:11:10;20.80;99.90
32334;DHT22;18810;53.040;8.850;2022-09-12T08:13:37;20.80;99.90
32334;DHT22;18810;53.040;8.850;2022-09-12T08:16:06;20.60;99.90
32334;DHT22;18810;53.040;8.850;2022-09-12T08:18:34;20.50;99.90
32334;DHT22;18810;53.040;8.850;2022-09-12T08:21:15;20.70;99.90
32334;DHT22;18810;53.040;8.850;2022-09-12T08:23:41;20.50;99.90
32334;DHT22;18810;53.040;8.850;2022-09-12T08:26:09;20.30;99.90
32334;DHT22;18810;53.040;8.850;2022-09-12T08:28:35;20.00;99.90
32334;DHT22;18810;53.040;8.850;2022-09-12T08:31:06;20.40;99.90
32334;DHT22;18810;53.040;8.850;2022-09-12T08:33:33;20.40;99.90
32334;DHT22;18810;53.040;8.850;2022-09-12T08:36:07;20.70;99.90
32334;DHT22;18810;53.040;8.850;2022-09-12T08:38:34;20.90;99.90
32334;DHT22;18810;53.040;8.850;2022-09-12T08:43:42;20.70;99.90
32334;DHT22;18810;53.040;8.850;2022-09-12T08:46:26;20.90;99.90
32334;DHT22;18810;53.040;8.850;2022-09-12T08:48:54;21.00;99.90
32334;DHT22;18810;53.040;8.850;2022-09-12T08:51:22;21.00;99.90
32334;DHT22;18810;53.040;8.850;2022-09-12T08:53:50;21.00;99.90
32334;DHT22;18810;53.040;8.850;2022-09-12T08:56:19;21.20;99.90
32334;DHT22;18810;53.040;8.850;2022-09-12T08:58:45;21.10;99.90
32334;DHT22;18810;53.040;8.850;2022-09-12T09:04:17;21.30;99.90
32334;DHT22;18810;53.040;8.850;2022-09-12T09:10:02;21.50;99.90
32334;DHT22;18810;53.040;8.850;2022-09-12T09:17:41;21.80;99.90
32334;DHT22;18810;53.040;8.850;2022-09-12T09:20:31;21.90;99.90
32334;DHT22;18810;53.040;8.850;2022-09-12T09:25:39;22.20;99.90
32334;DHT22;18810;53.040;8.850;2022-09-12T09:28:15;22.10;99.90
32334;DHT22;18810;53.040;8.850;2022-09-12T09:30:43;22.30;99.90
32334;DHT22;18810;53.040;8.850;2022-09-12T09:33:17;22.40;99.90
32334;DHT22;18810;53.040;8.850;2022-09-12T09:35:46;22.20;99.90
32334;DHT22;18810;53.040;8.850;2022-09-12T09:43:23;22.80;99.90
32334;DHT22;18810;53.040;8.850;2022-09-12T09:45:53;23.10;99.90
32334;DHT22;18810;53.040;8.850;2022-09-12T09:50:50;23.10;99.90
32334;DHT22;18810;53.040;8.850;2022-09-12T10:01:50;22.20;99.90
32334;DHT22;18810;53.040;8.850;2022-09-12T10:04:26;22.80;99.90
32334;DHT22;18810;53.040;8.850;2022-09-12T10:07:00;23.10;99.90
32334;DHT22;18810;53.040;8.850;2022-09-12T10:09:32;23.00;99.90
32334;DHT22;18810;53.040;8.850;2022-09-12T10:12:00;23.20;99.90
32334;DHT22;18810;53.040;8.850;2022-09-12T10:14:32;23.20;99.90
32334;DHT22;18810;53.040;8.850;2022-09-12T10:17:00;23.20;99.90
32334;DHT22;18810;53.040;8.850;2022-09-12T10:19:36;23.00;99.90
32334;DHT22;18810;53.040;8.850;2022-09-12T10:22:03;23.20;99.90
32334;DHT22;18810;53.040;8.850;2022-09-12T10:24:36;23.30;99.90
32334;DHT22;18810;53.040;8.850;2022-09-12T10:27:15;23.40;99.90
32334;DHT22;18810;53.040;8.850;2022-09-12T10:32:38;23.50;99.90
32334;DHT22;18810;53.040;8.850;2022-09-12T10:35:07;23.30;99.90
32334;DHT22;18810;53.040;8.850;2022-09-12T10:40:21;23.40;99.90
32334;DHT22;18810;53.040;8.850;2022-09-12T10:42:59;23.40;99.90
32334;DHT22;18810;53.040;8.850;2022-09-12T10:45:26;23.70;99.90
32334;DHT22;18810;53.040;8.850;2022-09-12T10:47:55;23.70;99.90
32334;DHT22;18810;53.040;8.850;2022-09-12T10:55:37;23.40;99.90
32334;DHT22;18810;53.040;8.850;2022-09-12T11:00:51;23.70;99.90
32334;DHT22;18810;53.040;8.850;2022-09-12T11:06:04;24.60;98.80
32334;DHT22;18810;53.040;8.850;2022-09-12T11:17:39;24.90;97.10
32334;DHT22;18810;53.040;8.850;2022-09-12T11:23:08;24.60;97.40
32334;DHT22;18810;53.040;8.850;2022-09-12T11:26:07;25.70;96.00
32334;DHT22;18810;53.040;8.850;2022-09-12T11:39:45;25.30;94.00
32334;DHT22;18810;53.040;8.850;2022-09-12T11:42:20;24.80;94.90
32334;DHT22;18810;53.040;8.850;2022-09-12T11:45:08;25.00;94.70
32334;DHT22;18810;53.040;8.850;2022-09-12T11:47:37;25.00;94.20
32334;DHT22;18810;53.040;8.850;2022-09-12T11:50:19;25.00;94.00
32334;DHT22;18810;53.040;8.850;2022-09-12T11:52:46;25.20;93.70
32334;DHT22;18810;53.040;8.850;2022-09-12T11:55:21;25.30;93.60
32334;DHT22;18810;53.040;8.850;2022-09-12T11:57:54;25.40;93.80
32334;DHT22;18810;53.040;8.850;2022-09-12T12:08:02;25.50;92.30
32334;DHT22;18810;53.040;8.850;2022-09-12T12:12:59;25.60;92.20
32334;DHT22;18810;53.040;8.850;2022-09-12T12:15:27;26.00;92.30
32334;DHT22;18810;53.040;8.850;2022-09-12T12:18:16;26.60;91.00
32334;DHT22;18810;53.040;8.850;2022-09-12T12:20:42;27.20;89.70
32334;DHT22;18810;53.040;8.850;2022-09-12T12:25:51;26.20;88.90
32334;DHT22;18810;53.040;8.850;2022-09-12T12:31:15;25.80;90.00
32334;DHT22;18810;53.040;8.850;2022-09-12T12:36:33;25.70;90.60
32334;DHT22;18810;53.040;8.850;2022-09-12T12:41:58;26.00;89.40
32334;DHT22;18810;53.040;8.850;2022-09-12T12:47:18;26.40;86.70
32334;DHT22;18810;53.040;8.850;2022-09-12T12:50:03;26.80;85.60
32334;DHT22;18810;53.040;8.850;2022-09-12T12:52:32;26.80;85.90
32334;DHT22;18810;53.040;8.850;2022-09-12T12:55:14;27.50;85.60
32334;DHT22;18810;53.040;8.850;2022-09-12T13:05:37;28.60;80.90
32334;DHT22;18810;53.040;8.850;2022-09-12T13:10:35;28.40;79.50
32334;DHT22;18810;53.040;8.850;2022-09-12T13:13:03;28.20;78.10
32334;DHT22;18810;53.040;8.850;2022-09-12T13:18:09;28.40;80.00
32334;DHT22;18810;53.040;8.850;2022-09-12T13:21:07;28.70;78.30
32334;DHT22;18810;53.040;8.850;2022-09-12T13:23:33;28.60;78.70
32334;DHT22;18810;53.040;8.850;2022-09-12T13:26:01;28.20;77.30
32334;DHT22;18810;53.040;8.850;2022-09-12T13:28:28;28.60;76.60
32334;DHT22;18810;53.040;8.850;2022-09-12T13:31:36;28.60;74.80
32334;DHT22;18810;53.040;8.850;2022-09-12T13:39:14;27.90;76.50
32334;DHT22;18810;53.040;8.850;2022-09-12T13:44:19;28.00;76.70
32334;DHT22;18810;53.040;8.850;2022-09-12T13:46:46;28.60;76.10
32334;DHT22;18810;53.040;8.850;2022-09-12T13:49:26;28.70;75.40
32334;DHT22;18810;53.040;8.850;2022-09-12T13:52:04;28.80;74.40
32334;DHT22;18810;53.040;8.850;2022-09-12T13:54:32;29.10;75.40
32334;DHT22;18810;53.040;8.850;2022-09-12T13:56:58;28.80;74.70
32334;DHT22;18810;53.040;8.850;2022-09-12T13:59:24;29.10;74.60
32334;DHT22;18810;53.040;8.850;2022-09-12T14:01:50;29.00;74.70
32334;DHT22;18810;53.040;8.850;2022-09-12T14:07:20;29.20;74.60
32334;DHT22;18810;53.040;8.850;2022-09-12T14:09:55;29.00;74.90
32334;DHT22;18810;53.040;8.850;2022-09-12T14:12:28;28.80;75.00
32334;DHT22;18810;53.040;8.850;2022-09-12T14:14:55;28.90;74.80
32334;DHT22;18810;53.040;8.850;2022-09-12T14:19:58;28.70;76.10
32334;DHT22;18810;53.040;8.850;2022-09-12T14:22:26;28.60;76.50
32334;DHT22;18810;53.040;8.850;2022-09-12T14:24:55;28.90;74.40
32334;DHT22;18810;53.040;8.850;2022-09-12T14:27:26;29.10;74.00
32334;DHT22;18810;53.040;8.850;2022-09-12T14:30:06;29.00;72.70
32334;DHT22;18810;53.040;8.850;2022-09-12T14:32:34;29.00;73.00
32334;DHT22;18810;53.040;8.850;2022-09-12T14:35:19;28.80;73.20
32334;DHT22;18810;53.040;8.850;2022-09-12T14:37:47;28.50;74.70
32334;DHT22;18810;53.040;8.850;2022-09-12T14:40:22;28.60;75.20
32334;DHT22;18810;53.040;8.850;2022-09-12T14:42:49;28.80;74.70
32334;DHT22;18810;53.040;8.850;2022-09-12T14:45:17;28.60;74.60
32334;DHT22;18810;53.040;8.850;2022-09-12T14:47:48;27.90;75.60
32334;DHT22;18810;53.040;8.850;2022-09-12T14:50:34;27.50;76.50
32334;DHT22;18810;53.040;8.850;2022-09-12T14:53:35;27.50;78.30
32334;DHT22;18810;53.040;8.850;2022-09-12T14:58:33;28.40;76.50
32334;DHT22;18810;53.040;8.850;2022-09-12T15:06:31;27.80;76.20
32334;DHT22;18810;53.040;8.850;2022-09-12T15:09:12;27.70;76.70
32334;DHT22;18810;53.040;8.850;2022-09-12T15:11:38;28.10;76.20
32334;DHT22;18810;53.040;8.850;2022-09-12T15:14:13;28.20;76.10
32334;DHT22;18810;53.040;8.850;2022-09-12T15:16:40;27.80;76.80
32334;DHT22;18810;53.040;8.850;2022-09-12T15:19:06;27.60;76.50
32334;DHT22;18810;53.040;8.850;2022-09-12T15:21:31;27.40;76.30
32334;DHT22;18810;53.040;8.850;2022-09-12T15:26:24;27.30;78.10
32334;DHT22;18810;53.040;8.850;2022-09-12T15:28:54;26.90;78.90
32334;DHT22;18810;53.040;8.850;2022-09-12T15:31:27;27.10;78.50
32334;DHT22;18810;53.040;8.850;2022-09-12T15:33:54;27.20;78.90
32334;DHT22;18810;53.040;8.850;2022-09-12T15:36:21;27.00;79.30
32334;DHT22;18810;53.040;8.850;2022-09-12T15:38:48;27.30;79.50
32334;DHT22;18810;53.040;8.850;2022-09-12T15:41:35;27.00;78.20
32334;DHT22;18810;53.040;8.850;2022-09-12T15:44:05;26.80;79.60
32334;DHT22;18810;53.040;8.850;2022-09-12T15:46:32;26.50;80.30
32334;DHT22;18810;53.040;8.850;2022-09-12T15:48:58;26.40;80.90
32334;DHT22;18810;53.040;8.850;2022-09-12T15:51:24;26.50;80.20
32334;DHT22;18810;53.040;8.850;2022-09-12T15:53:50;26.40;81.10
32334;DHT22;18810;53.040;8.850;2022-09-12T15:56:17;26.40;81.50
32334;DHT22;18810;53.040;8.850;2022-09-12T15:58:43;26.30;82.70
32334;DHT22;18810;53.040;8.850;2022-09-12T16:01:11;26.20;82.30
32334;DHT22;18810;53.040;8.850;2022-09-12T16:03:37;25.90;82.70
32334;DHT22;18810;53.040;8.850;2022-09-12T16:06:03;25.70;83.90
32334;DHT22;18810;53.040;8.850;2022-09-12T16:08:30;25.60;84.20
32334;DHT22;18810;53.040;8.850;2022-09-12T16:11:04;25.60;84.00
32334;DHT22;18810;53.040;8.850;2022-09-12T16:13:31;25.50;84.60
32334;DHT22;18810;53.040;8.850;2022-09-12T16:15:59;25.50;85.40
32334;DHT22;18810;53.040;8.850;2022-09-12T16:18:26;25.70;83.90
32334;DHT22;18810;53.040;8.850;2022-09-12T16:20:53;25.80;83.40
32334;DHT22;18810;53.040;8.850;2022-09-12T16:23:19;25.80;83.70
32334;DHT22;18810;53.040;8.850;2022-09-12T16:25:45;25.90;83.70
32334;DHT22;18810;53.040;8.850;2022-09-12T16:28:11;25.90;83.40
32334;DHT22;18810;53.040;8.850;2022-09-12T16:30:36;25.80;83.40
32334;DHT22;18810;53.040;8.850;2022-09-12T16:33:02;25.80;84.30
32334;DHT22;18810;53.040;8.850;2022-09-12T16:35:30;25.70;84.30
32334;DHT22;18810;53.040;8.850;2022-09-12T16:37:56;25.80;84.80
32334;DHT22;18810;53.040;8.850;2022-09-12T16:40:22;25.90;84.20
32334;DHT22;18810;53.040;8.850;2022-09-12T16:42:48;25.90;85.00
32334;DHT22;18810;53.040;8.850;2022-09-12T16:45:13;25.80;84.70
32334;DHT22;18810;53.040;8.850;2022-09-12T16:47:39;25.70;85.20
32334;DHT22;18810;53.040;8.850;2022-09-12T16:50:05;25.50;85.00
32334;DHT22;18810;53.040;8.850;2022-09-12T16:52:33;25.50;85.60
32334;DHT22;18810;53.040;8.850;2022-09-12T16:54:59;25.30;86.30
32334;DHT22;18810;53.040;8.850;2022-09-12T16:57:25;25.30;86.90
32334;DHT22;18810;53.040;8.850;2022-09-12T16:59:50;25.30;87.70
32334;DHT22;18810;53.040;8.850;2022-09-12T17:02:16;25.30;87.30
32334;DHT22;18810;53.040;8.850;2022-09-12T17:04:42;25.20;87.50
32334;DHT22;18810;53.040;8.850;2022-09-12T17:07:08;25.20;88.10
32334;DHT22;18810;53.040;8.850;2022-09-12T17:09:34;25.00;87.70
32334;DHT22;18810;53.040;8.850;2022-09-12T17:11:59;25.00;87.30
32334;DHT22;18810;53.040;8.850;2022-09-12T17:14:25;25.00;88.40
32334;DHT22;18810;53.040;8.850;2022-09-12T17:16:51;25.00;88.40
32334;DHT22;18810;53.040;8.850;2022-09-12T17:19:20;24.90;89.00
32334;DHT22;18810;53.040;8.850;2022-09-12T17:21:47;24.80;89.00
32334;DHT22;18810;53.040;8.850;2022-09-12T17:24:18;24.80;89.60
32334;DHT22;18810;53.040;8.850;2022-09-12T17:26:44;24.70;90.10
32334;DHT22;18810;53.040;8.850;2022-09-12T17:29:11;24.60;90.30
32334;DHT22;18810;53.040;8.850;2022-09-12T17:31:38;24.60;90.20
32334;DHT22;18810;53.040;8.850;2022-09-12T17:34:04;24.50;90.30
32334;DHT22;18810;53.040;8.850;2022-09-12T17:36:30;24.50;90.50
32334;DHT22;18810;53.040;8.850;2022-09-12T17:38:56;24.40;90.60
32334;DHT22;18810;53.040;8.850;2022-09-12T17:41:26;24.30;91.00
32334;DHT22;18810;53.040;8.850;2022-09-12T17:43:55;24.20;91.30
32334;DHT22;18810;53.040;8.850;2022-09-12T17:46:24;24.10;91.60
32334;DHT22;18810;53.040;8.850;2022-09-12T17:48:53;23.90;91.60
32334;DHT22;18810;53.040;8.850;2022-09-12T17:51:19;23.80;91.80
32334;DHT22;18810;53.040;8.850;2022-09-12T17:53:46;23.80;92.20
32334;DHT22;18810;53.040;8.850;2022-09-12T17:56:12;23.50;92.30
32334;DHT22;18810;53.040;8.850;2022-09-12T17:58:38;23.50;92.50
32334;DHT22;18810;53.040;8.850;2022-09-12T18:01:14;23.40;92.60
32334;DHT22;18810;53.040;8.850;2022-09-12T18:03:59;23.40;92.80
32334;DHT22;18810;53.040;8.850;2022-09-12T18:06:26;23.50;93.00
32334;DHT22;18810;53.040;8.850;2022-09-12T18:08:52;23.30;93.20
32334;DHT22;18810;53.040;8.850;2022-09-12T18:11:18;23.20;93.10
32334;DHT22;18810;53.040;8.850;2022-09-12T18:13:44;23.10;93.50
32334;DHT22;18810;53.040;8.850;2022-09-12T18:16:11;23.00;93.70
32334;DHT22;18810;53.040;8.850;2022-09-12T18:18:37;22.90;93.90
32334;DHT22;18810;53.040;8.850;2022-09-12T18:21:04;22.80;94.20
32334;DHT22;18810;53.040;8.850;2022-09-12T18:23:31;22.70;94.60
32334;DHT22;18810;53.040;8.850;2022-09-12T18:25:58;22.70;94.70
32334;DHT22;18810;53.040;8.850;2022-09-12T18:28:25;22.70;95.00
32334;DHT22;18810;53.040;8.850;2022-09-12T18:30:51;22.60;95.10
32334;DHT22;18810;53.040;8.850;2022-09-12T18:33:17;22.30;95.30
32334;DHT22;18810;53.040;8.850;2022-09-12T18:35:43;22.50;95.60
32334;DHT22;18810;53.040;8.850;2022-09-12T18:38:08;22.30;95.80
32334;DHT22;18810;53.040;8.850;2022-09-12T18:40:34;22.50;96.00
32334;DHT22;18810;53.040;8.850;2022-09-12T18:42:59;22.30;96.10
32334;DHT22;18810;53.040;8.850;2022-09-12T18:45:25;22.20;96.20
32334;DHT22;18810;53.040;8.850;2022-09-12T18:47:51;22.40;96.60
32334;DHT22;18810;53.040;8.850;2022-09-12T18:50:17;22.00;96.80
32334;DHT22;18810;53.040;8.850;2022-09-12T18:52:43;22.20;96.90
32334;DHT22;18810;53.040;8.850;2022-09-12T18:55:09;21.90;96.80
32334;DHT22;18810;53.040;8.850;2022-09-12T18:57:35;21.80;97.20
32334;DHT22;18810;53.040;8.850;2022-09-12T19:00:01;21.90;97.10
32334;DHT22;18810;53.040;8.850;2022-09-12T19:02:29;21.80;97.10
32334;DHT22;18810;53.040;8.850;2022-09-12T19:04:54;21.80;97.20
32334;DHT22;18810;53.040;8.850;2022-09-12T19:07:20;21.90;97.80
32334;DHT22;18810;53.040;8.850;2022-09-12T19:12:12;21.80;97.50
32334;DHT22;18810;53.040;8.850;2022-09-12T19:14:38;21.50;97.70
32334;DHT22;18810;53.040;8.850;2022-09-12T19:17:03;21.40;97.60
32334;DHT22;18810;53.040;8.850;2022-09-12T19:19:29;21.30;97.70
32334;DHT22;18810;53.040;8.850;2022-09-12T19:21:55;21.20;97.50
32334;DHT22;18810;53.040;8.850;2022-09-12T19:24:21;21.30;97.80
32334;DHT22;18810;53.040;8.850;2022-09-12T19:26:48;21.20;98.00
32334;DHT22;18810;53.040;8.850;2022-09-12T19:29:14;20.90;97.90
32334;DHT22;18810;53.040;8.850;2022-09-12T19:31:42;21.00;97.70
32334;DHT22;18810;53.040;8.850;2022-09-12T19:34:08;20.70;98.20
32334;DHT22;18810;53.040;8.850;2022-09-12T19:36:35;20.80;98.00
32334;DHT22;18810;53.040;8.850;2022-09-12T19:39:03;20.70;98.40
32334;DHT22;18810;53.040;8.850;2022-09-12T19:41:28;20.70;98.50
32334;DHT22;18810;53.040;8.850;2022-09-12T19:43:55;20.60;98.50
32334;DHT22;18810;53.040;8.850;2022-09-12T19:46:22;20.70;98.10
32334;DHT22;18810;53.040;8.850;2022-09-12T19:48:48;20.80;98.70
32334;DHT22;18810;53.040;8.850;2022-09-12T19:51:15;20.70;98.80
32334;DHT22;18810;53.040;8.850;2022-09-12T19:53:42;20.50;99.00
32334;DHT22;18810;53.040;8.850;2022-09-12T19:56:10;20.50;99.20
32334;DHT22;18810;53.040;8.850;2022-09-12T19:58:38;20.50;99.30
32334;DHT22;18810;53.040;8.850;2022-09-12T20:01:19;20.40;99.40
32334;DHT22;18810;53.040;8.850;2022-09-12T20:03:45;20.40;99.70
32334;DHT22;18810;53.040;8.850;2022-09-12T20:06:13;20.60;99.90
32334;DHT22;18810;53.040;8.850;2022-09-12T20:08:39;20.10;99.90
32334;DHT22;18810;53.040;8.850;2022-09-12T20:11:07;20.20;99.60
32334;DHT22;18810;53.040;8.850;2022-09-12T20:13:34;20.20;99.90
32334;DHT22;18810;53.040;8.850;2022-09-12T20:16:07;20.00;99.90
32334;DHT22;18810;53.040;8.850;2022-09-12T20:18:34;20.00;99.90
32334;DHT22;18810;53.040;8.850;2022-09-12T20:21:31;20.00;99.90
32334;DHT22;18810;53.040;8.850;2022-09-12T20:24:00;20.10;99.90